createdAt,value
2023-02-08T00:01:27.050Z,35.47
2023-02-08T00:04:13.853Z,36.03
2023-02-08T00:07:00.671Z,37.47
2023-02-08T00:09:47.556Z,31.20
2023-02-08T00:12:34.777Z,28.87
2023-02-08T00:15:21.766Z,31.63
2023-02-08T00:18:09.832Z,36.93
2023-02-08T00:20:57.415Z,31.93
2023-02-08T00:23:44.273Z,39.10
2023-02-08T00:26:31.184Z,32.50
2023-02-08T00:29:18.126Z,34.07
2023-02-08T00:32:05.213Z,24.07
2023-02-08T00:34:53.093Z,29.73
2023-02-08T00:37:39.977Z,27.63
2023-02-08T00:40:27.776Z,25.13
2023-02-08T00:43:14.469Z,26.93
2023-02-08T00:46:02.550Z,29.00
2023-02-08T00:48:49.680Z,25.63
2023-02-08T00:51:37.850Z,36.10
2023-02-08T00:54:24.780Z,26.07
2023-02-08T00:57:11.768Z,34.10
2023-02-08T00:59:58.208Z,28.10
2023-02-08T01:02:44.942Z,26.17
2023-02-08T01:05:31.856Z,30.30
2023-02-08T01:08:21.415Z,23.87
2023-02-08T01:11:10.743Z,26.60
2023-02-08T01:13:58.646Z,26.23
2023-02-08T01:16:45.671Z,28.60
2023-02-08T01:19:33.857Z,25.60
2023-02-08T01:22:23.085Z,25.50
2023-02-08T01:25:11.332Z,28.17
2023-02-08T01:27:57.961Z,25.27
2023-02-08T01:30:44.731Z,32.93
2023-02-08T01:33:31.352Z,30.07
2023-02-08T01:36:20.112Z,22.43
2023-02-08T01:39:08.723Z,28.37
2023-02-08T01:41:56.608Z,24.77
2023-02-08T01:45:30.044Z,20.83
2023-02-08T01:48:21.362Z,28.73
2023-02-08T01:51:12.214Z,23.67
2023-02-08T01:54:01.845Z,21.43
2023-02-08T01:56:49.897Z,25.17
2023-02-08T01:59:43.091Z,28.67
2023-02-08T02:02:30.280Z,32.47
2023-02-08T02:05:18.658Z,25.10
2023-02-08T02:08:06.962Z,24.17
2023-02-08T02:10:53.839Z,28.47
2023-02-08T02:13:41.461Z,24.60
2023-02-08T02:16:29.792Z,26.73
2023-02-08T02:19:27.591Z,33.03
2023-02-08T02:22:40.933Z,27.23
2023-02-08T02:25:59.436Z,27.80
2023-02-08T02:29:23.589Z,31.17
2023-02-08T02:32:21.041Z,28.37
2023-02-08T02:35:20.346Z,29.37
2023-02-08T02:38:15.587Z,25.93
2023-02-08T02:41:10.485Z,31.03
2023-02-08T02:44:00.326Z,24.30
2023-02-08T02:46:54.999Z,30.63
2023-02-08T02:49:51.704Z,25.67
2023-02-08T02:52:43.913Z,19.67
2023-02-08T02:55:34.085Z,29.33
2023-02-08T02:58:23.039Z,24.57
2023-02-08T03:01:09.678Z,24.05
2023-02-08T03:03:56.770Z,27.58
2023-02-08T03:06:59.505Z,30.17
2023-02-08T03:10:03.080Z,26.83
2023-02-08T03:12:59.568Z,27.90
2023-02-08T03:15:59.512Z,27.40
2023-02-08T03:19:00.519Z,24.58
2023-02-08T03:21:56.117Z,25.35
2023-02-08T03:24:51.173Z,30.38
2023-02-08T03:27:46.084Z,29.23
2023-02-08T03:30:45.411Z,27.70
2023-02-08T03:33:36.288Z,28.55
2023-02-08T03:36:28.673Z,24.67
2023-02-08T03:39:20.966Z,30.38
2023-02-08T03:42:15.585Z,27.98
2023-02-08T03:45:06.810Z,27.13
2023-02-08T03:47:58.243Z,23.90
2023-02-08T03:50:50.388Z,21.90
2023-02-08T03:53:40.635Z,20.15
2023-02-08T03:56:37.639Z,22.15
2023-02-08T03:59:29.401Z,24.83
2023-02-08T04:02:21.312Z,30.00
2023-02-08T04:05:09.162Z,23.13
2023-02-08T04:07:55.723Z,19.80
2023-02-08T04:10:42.877Z,24.85
2023-02-08T04:13:31.363Z,25.10
2023-02-08T04:16:18.028Z,21.55
2023-02-08T04:19:04.833Z,24.83
2023-02-08T04:21:51.757Z,27.67
2023-02-08T04:24:38.292Z,25.73
2023-02-08T04:27:24.967Z,25.52
2023-02-08T04:30:14.378Z,23.00
2023-02-08T04:33:01.136Z,26.73
2023-02-08T04:35:47.827Z,25.77
2023-02-08T04:38:34.795Z,23.63
2023-02-08T04:41:21.682Z,24.73
2023-02-08T04:44:08.305Z,25.63
2023-02-08T04:46:56.451Z,27.20
2023-02-08T04:49:43.330Z,24.00
2023-02-08T04:52:30.214Z,29.60
2023-02-08T04:55:16.953Z,20.73
2023-02-08T04:58:03.987Z,26.05
2023-02-08T05:00:50.878Z,20.58
2023-02-08T05:03:38.816Z,23.55
2023-02-08T05:06:25.532Z,22.33
2023-02-08T05:09:12.221Z,23.27
2023-02-08T05:11:58.920Z,29.42
2023-02-08T05:14:45.912Z,24.60
2023-02-08T05:17:32.649Z,21.65
2023-02-08T05:20:21.687Z,26.02
2023-02-08T05:23:08.245Z,25.02
2023-02-08T05:25:55.070Z,21.27
2023-02-08T05:28:41.757Z,23.33
2023-02-08T05:31:28.653Z,23.52
2023-02-08T05:34:15.600Z,20.50
2023-02-08T05:37:03.784Z,29.00
2023-02-08T05:39:50.542Z,27.23
2023-02-08T05:42:37.291Z,24.17
2023-02-08T05:45:24.107Z,26.52
2023-02-08T05:48:10.920Z,20.95
2023-02-08T05:50:58.155Z,24.40
2023-02-08T05:53:45.859Z,23.02
2023-02-08T05:56:32.980Z,23.42
2023-02-08T05:59:19.633Z,21.95
2023-02-08T06:02:06.462Z,22.27
2023-02-08T06:04:53.213Z,22.23
2023-02-08T06:07:40.150Z,20.63
2023-02-08T06:10:28.410Z,24.85
2023-02-08T06:13:16.011Z,22.88
2023-02-08T06:16:02.826Z,33.75
2023-02-08T06:18:49.600Z,21.20
2023-02-08T06:21:36.389Z,23.95
2023-02-08T06:24:23.164Z,22.13
2023-02-08T06:27:11.528Z,27.70
2023-02-08T06:29:58.411Z,23.58
2023-02-08T06:32:45.180Z,26.45
2023-02-08T06:35:32.861Z,31.63
2023-02-08T06:38:19.543Z,28.10
2023-02-08T06:41:06.732Z,29.98
2023-02-08T06:43:54.536Z,25.58
2023-02-08T06:46:41.436Z,29.52
2023-02-08T06:49:28.201Z,24.40
2023-02-08T06:52:15.074Z,21.98
2023-02-08T06:55:01.842Z,28.55
2023-02-08T06:57:48.771Z,21.47
2023-02-08T07:00:39.431Z,31.48
2023-02-08T07:03:26.180Z,32.28
2023-02-08T07:06:14.208Z,28.85
2023-02-08T07:09:02.950Z,28.92
2023-02-08T07:11:50.874Z,33.43
2023-02-08T07:14:40.975Z,26.43
2023-02-08T07:17:31.463Z,38.50
2023-02-08T07:20:20.563Z,32.70
2023-02-08T07:23:08.370Z,27.60
2023-02-08T07:26:00.829Z,32.92
2023-02-08T07:28:48.704Z,28.70
2023-02-08T07:31:36.989Z,35.27
2023-02-08T07:34:26.674Z,27.20
2023-02-08T07:37:19.545Z,36.30
2023-02-08T07:40:07.100Z,31.20
2023-02-08T07:42:53.743Z,38.93
2023-02-08T07:45:50.618Z,32.23
2023-02-08T07:48:40.100Z,36.00
2023-02-08T07:51:28.432Z,34.40
2023-02-08T07:54:15.103Z,29.23
2023-02-08T07:57:03.673Z,31.80
2023-02-08T07:59:51.289Z,32.83
2023-02-08T08:02:38.634Z,33.30
2023-02-08T08:05:25.350Z,32.50
2023-02-08T08:08:14.151Z,36.23
2023-02-08T08:11:03.436Z,35.93
2023-02-08T08:13:50.920Z,33.70
2023-02-08T08:16:37.720Z,32.23
2023-02-08T08:19:24.497Z,31.17
2023-02-08T08:22:11.089Z,39.80
2023-02-08T08:25:00.145Z,34.50
2023-02-08T08:27:47.050Z,31.73
2023-02-08T08:30:33.778Z,31.70
2023-02-08T08:33:21.247Z,33.10
2023-02-08T08:36:08.873Z,36.87
2023-02-08T08:38:55.775Z,36.97
2023-02-08T08:41:44.106Z,31.50
2023-02-08T08:44:30.901Z,35.80
2023-02-08T08:47:17.861Z,38.57
2023-02-08T08:50:04.886Z,38.97
2023-02-08T08:52:51.331Z,36.00
2023-02-08T08:55:38.116Z,38.73
2023-02-08T08:58:26.505Z,34.40
2023-02-08T09:01:14.250Z,31.07
2023-02-08T09:04:01.325Z,34.40
2023-02-08T09:06:47.841Z,46.03
2023-02-08T09:09:34.645Z,72.67
2023-02-08T09:12:21.267Z,38.43
2023-02-08T09:15:10.067Z,41.80
2023-02-08T09:17:57.116Z,45.37
2023-02-08T09:20:44.356Z,36.17
2023-02-08T09:23:31.320Z,39.23
2023-02-08T09:26:20.740Z,45.10
2023-02-08T09:29:07.815Z,47.70
2023-02-08T09:31:55.660Z,44.67
2023-02-08T09:34:42.311Z,44.80
2023-02-08T09:37:29.437Z,40.70
2023-02-08T09:40:24.104Z,40.63
2023-02-08T09:43:14.239Z,45.47
2023-02-08T09:46:06.577Z,36.43
2023-02-08T09:48:59.462Z,42.17
2023-02-08T09:51:52.471Z,41.40
2023-02-08T09:54:44.680Z,37.10
2023-02-08T09:57:36.083Z,44.03
2023-02-08T10:00:29.093Z,40.60
2023-02-08T10:03:26.738Z,45.30
2023-02-08T10:06:17.476Z,36.60
2023-02-08T10:09:07.467Z,42.13
2023-02-08T10:12:07.078Z,54.37
2023-02-08T10:15:03.065Z,41.30
2023-02-08T10:18:05.658Z,31.13
2023-02-08T10:21:04.924Z,37.27
2023-02-08T10:24:15.041Z,40.00
2023-02-08T10:27:11.806Z,39.50
2023-02-08T10:30:12.033Z,39.23
2023-02-08T10:33:02.497Z,43.37
2023-02-08T10:35:51.750Z,41.87
2023-02-08T10:38:46.770Z,43.17
2023-02-08T10:41:38.181Z,41.60
2023-02-08T10:44:32.181Z,43.80
2023-02-08T10:47:26.745Z,43.00
2023-02-08T10:50:21.966Z,36.80
2023-02-08T10:53:15.921Z,38.57
2023-02-08T10:56:02.697Z,36.87
2023-02-08T10:58:50.946Z,39.40
2023-02-08T11:01:37.567Z,39.07
2023-02-08T11:04:24.433Z,40.60
2023-02-08T11:07:22.286Z,50.30
2023-02-08T11:10:24.782Z,38.07
2023-02-08T11:13:19.188Z,41.53
2023-02-08T11:16:08.988Z,48.33
2023-02-08T11:18:58.279Z,37.17
2023-02-08T11:21:51.998Z,45.40
2023-02-08T11:24:41.620Z,39.77
2023-02-08T11:27:34.678Z,40.53
2023-02-08T11:30:24.437Z,44.90
2023-02-08T11:33:23.397Z,42.97
2023-02-08T11:36:14.650Z,40.63
2023-02-08T11:39:03.564Z,36.73
2023-02-08T11:41:52.796Z,44.13
2023-02-08T11:44:45.938Z,45.10
2023-02-08T11:47:35.768Z,46.17
2023-02-08T11:50:27.828Z,47.00
2023-02-08T11:53:27.829Z,39.80
2023-02-08T11:56:20.898Z,43.50
2023-02-08T11:59:20.340Z,45.17
2023-02-08T12:02:28.453Z,46.17
2023-02-08T12:05:19.017Z,37.67
2023-02-08T12:08:14.866Z,45.97
2023-02-08T12:11:13.888Z,40.33
2023-02-08T12:14:28.372Z,33.87
2023-02-08T12:17:47.649Z,43.73
2023-02-08T12:20:42.296Z,44.80
2023-02-08T12:23:49.688Z,40.97
2023-02-08T12:27:02.578Z,37.13
2023-02-08T12:29:56.897Z,44.23
2023-02-08T12:32:58.298Z,40.03
2023-02-08T12:36:05.581Z,39.73
2023-02-08T12:39:48.167Z,39.50
2023-02-08T12:42:55.823Z,46.17
2023-02-08T12:46:01.377Z,45.90
2023-02-08T12:49:08.254Z,45.57
2023-02-08T12:52:04.136Z,41.73
2023-02-08T12:54:58.197Z,46.50
2023-02-08T12:57:49.119Z,41.33
2023-02-08T13:00:42.355Z,48.07
2023-02-08T13:03:43.119Z,41.60
2023-02-08T13:06:37.374Z,41.57
2023-02-08T13:09:40.258Z,44.17
2023-02-08T13:12:32.125Z,37.03
2023-02-08T13:15:42.223Z,40.67
2023-02-08T13:18:34.250Z,33.03
2023-02-08T13:21:23.956Z,40.00
2023-02-08T13:24:27.678Z,30.80
2023-02-08T13:27:17.885Z,39.07
2023-02-08T13:30:07.441Z,34.47
2023-02-08T13:32:56.463Z,38.53
2023-02-08T13:35:43.540Z,43.63
2023-02-08T13:38:32.954Z,42.20
2023-02-08T13:41:21.848Z,39.00
2023-02-08T13:44:17.907Z,44.10
2023-02-08T13:47:07.384Z,35.63
2023-02-08T13:49:57.151Z,36.27
2023-02-08T13:52:53.953Z,37.40
2023-02-08T13:55:56.066Z,40.90
2023-02-08T13:59:04.690Z,33.87
2023-02-08T14:02:23.683Z,40.30
2023-02-08T14:05:35.707Z,31.50
2023-02-08T14:08:25.812Z,32.53
2023-02-08T14:11:18.157Z,36.33
2023-02-08T14:14:14.724Z,43.50
2023-02-08T14:17:19.208Z,37.63
2023-02-08T14:20:09.049Z,36.23
2023-02-08T14:22:58.125Z,38.53
2023-02-08T14:25:48.242Z,38.40
2023-02-08T14:28:38.594Z,46.40
2023-02-08T14:31:38.255Z,42.90
2023-02-08T14:34:34.897Z,34.17
2023-02-08T14:37:31.360Z,41.20
2023-02-08T14:40:50.656Z,38.63
2023-02-08T14:43:38.352Z,37.20
2023-02-08T14:46:45.654Z,39.33
2023-02-08T14:49:39.226Z,38.97
2023-02-08T14:52:27.297Z,38.50
2023-02-08T14:55:20.486Z,38.90
2023-02-08T14:58:08.580Z,42.03
2023-02-08T15:00:57.380Z,37.73
2023-02-08T15:03:46.348Z,39.07
2023-02-08T15:07:01.723Z,37.43
2023-02-08T15:09:48.961Z,34.17
2023-02-08T15:12:39.674Z,37.80
2023-02-08T15:15:29.727Z,36.97
2023-02-08T15:18:21.146Z,37.83
2023-02-08T15:21:16.618Z,43.90
2023-02-08T15:24:06.034Z,41.23
2023-02-08T15:26:55.131Z,38.97
2023-02-08T15:29:45.673Z,45.70
2023-02-08T15:32:32.592Z,41.50
2023-02-08T15:35:23.084Z,37.27
2023-02-08T15:38:18.361Z,37.87
2023-02-08T15:41:08.082Z,37.50
2023-02-08T15:44:04.291Z,40.27
2023-02-08T15:49:43.694Z,35.10
2023-02-08T15:52:32.891Z,31.70
2023-02-08T15:55:19.978Z,39.70
2023-02-08T15:58:09.670Z,44.53
2023-02-08T16:00:58.501Z,32.93
2023-02-08T16:03:50.518Z,45.07
2023-02-08T16:06:40.386Z,41.53
2023-02-08T16:09:30.346Z,38.47
2023-02-08T16:12:22.134Z,40.07
2023-02-08T16:15:38.704Z,47.93
2023-02-08T16:18:39.340Z,56.47
2023-02-08T16:21:35.962Z,54.20
2023-02-08T16:24:26.607Z,47.87
2023-02-08T16:27:25.596Z,59.70
2023-02-08T16:30:19.227Z,43.20
2023-02-08T16:33:10.158Z,42.47
2023-02-08T16:36:01.975Z,45.00
2023-02-08T16:39:28.152Z,31.33
2023-02-08T16:42:33.920Z,42.67
2023-02-08T16:45:22.728Z,37.03
2023-02-08T16:48:28.874Z,35.80
2023-02-08T16:51:19.100Z,33.30
2023-02-08T16:54:08.103Z,34.60
2023-02-08T16:57:00.054Z,34.33
2023-02-08T16:59:46.816Z,34.30
2023-02-08T17:02:33.631Z,42.13
2023-02-08T17:05:22.508Z,38.00
2023-02-08T17:08:14.165Z,54.63
2023-02-08T17:11:02.434Z,41.60
2023-02-08T17:13:49.008Z,44.40
2023-02-08T17:16:37.045Z,37.87
2023-02-08T17:19:23.605Z,40.43
2023-02-08T17:22:10.285Z,51.03
2023-02-08T17:24:57.107Z,49.43
2023-02-08T17:27:45.392Z,64.63
2023-02-08T17:30:34.053Z,85.23
2023-02-08T17:33:20.759Z,108.20
2023-02-08T17:36:09.529Z,349.80
2023-02-08T17:38:56.113Z,181.17
2023-02-08T17:41:42.881Z,127.80
2023-02-08T17:44:30.900Z,130.57
2023-02-08T17:47:17.823Z,46.83
2023-02-08T17:50:04.686Z,57.47
2023-02-08T17:52:52.597Z,44.30
2023-02-08T17:55:45.445Z,41.30
2023-02-08T17:58:32.968Z,38.23
2023-02-08T18:01:23.699Z,38.30
2023-02-08T18:04:11.647Z,35.07
2023-02-08T18:06:58.166Z,39.43
2023-02-08T18:09:44.879Z,56.53
2023-02-08T18:12:31.713Z,78.73
2023-02-08T18:15:20.914Z,55.73
2023-02-08T18:18:09.083Z,53.93
2023-02-08T18:20:56.756Z,43.23
2023-02-08T18:23:44.144Z,41.10
2023-02-08T18:26:33.645Z,38.80
2023-02-08T18:29:20.451Z,40.17
2023-02-08T18:32:07.404Z,37.07
2023-02-08T18:34:56.904Z,31.47
2023-02-08T18:37:44.368Z,48.53
2023-02-08T18:40:32.274Z,45.60
2023-02-08T18:43:19.720Z,37.93
2023-02-08T18:46:09.994Z,42.00
2023-02-08T18:48:56.756Z,40.57
2023-02-08T18:51:45.888Z,42.80
2023-02-08T18:54:32.342Z,45.23
2023-02-08T18:57:19.417Z,48.83
2023-02-08T19:00:06.571Z,43.53
2023-02-08T19:02:53.111Z,81.27
2023-02-08T19:05:41.836Z,57.33
2023-02-08T19:08:30.177Z,58.23
2023-02-08T19:11:19.884Z,50.03
2023-02-08T19:14:09.094Z,52.97
2023-02-08T19:16:55.964Z,43.80
2023-02-08T19:19:44.602Z,51.87
2023-02-08T19:22:31.124Z,52.43
2023-02-08T19:25:20.958Z,40.57
2023-02-08T19:28:08.202Z,46.27
2023-02-08T19:31:03.714Z,44.37
2023-02-08T19:33:53.611Z,47.47
2023-02-08T19:36:44.169Z,49.90
2023-02-08T19:39:31.013Z,41.87
2023-02-08T19:42:19.635Z,41.67
2023-02-08T19:45:06.814Z,46.97
2023-02-08T19:47:55.069Z,61.87
2023-02-08T19:50:42.927Z,55.13
2023-02-08T19:53:30.517Z,39.23
2023-02-08T19:56:19.293Z,46.00
2023-02-08T19:59:09.961Z,42.93
2023-02-08T20:01:56.979Z,45.37
2023-02-08T20:04:43.619Z,42.67
2023-02-08T20:07:30.753Z,56.53
2023-02-08T20:10:17.575Z,48.30
2023-02-08T20:13:04.455Z,46.07
2023-02-08T20:15:59.745Z,34.40
2023-02-08T20:18:46.410Z,46.20
2023-02-08T20:21:39.642Z,49.73
2023-02-08T20:24:26.167Z,36.57
2023-02-08T20:27:13.150Z,37.17
2023-02-08T20:30:00.062Z,42.73
2023-02-08T20:32:48.433Z,41.37
2023-02-08T20:35:37.097Z,40.37
2023-02-08T20:38:23.770Z,36.53
2023-02-08T20:41:13.302Z,36.40
2023-02-08T20:43:59.781Z,34.77
2023-02-08T20:46:46.764Z,32.97
2023-02-08T20:49:34.834Z,36.70
2023-02-08T20:52:21.676Z,35.67
2023-02-08T20:55:09.461Z,27.63
2023-02-08T20:57:56.330Z,36.17
2023-02-08T21:00:44.982Z,29.33
2023-02-08T21:03:32.519Z,29.63
2023-02-08T21:06:23.550Z,29.80
2023-02-08T21:09:13.384Z,35.17
2023-02-08T21:12:00.012Z,32.23
2023-02-08T21:14:46.856Z,34.83
2023-02-08T21:17:33.621Z,27.53
2023-02-08T21:20:20.619Z,33.33
2023-02-08T21:23:08.853Z,31.33
2023-02-08T21:25:55.394Z,38.97
2023-02-08T21:28:43.362Z,29.97
2023-02-08T21:31:30.439Z,28.37
2023-02-08T21:34:19.465Z,21.07
2023-02-08T21:37:06.234Z,30.87
2023-02-08T21:39:54.348Z,30.90
2023-02-08T21:42:41.098Z,31.43
2023-02-08T21:45:31.345Z,20.23
2023-02-08T21:48:20.526Z,27.57
2023-02-08T21:51:24.728Z,26.00
2023-02-08T21:54:33.954Z,23.67
2023-02-08T21:57:26.609Z,19.27
2023-02-08T22:00:25.124Z,31.63
2023-02-08T22:03:13.429Z,24.73
2023-02-08T22:06:23.232Z,24.57
2023-02-08T22:09:12.165Z,23.97
2023-02-08T22:12:02.189Z,30.73
2023-02-08T22:14:53.974Z,21.97
2023-02-08T22:17:49.105Z,21.23
2023-02-08T22:20:38.453Z,31.10
2023-02-08T22:23:27.568Z,25.40
2023-02-08T22:26:15.601Z,23.83
2023-02-08T22:29:04.680Z,20.63
2023-02-08T22:31:53.593Z,21.20
2023-02-08T22:34:41.876Z,23.30
2023-02-08T22:37:30.449Z,32.50
2023-02-08T22:40:19.341Z,20.43
2023-02-08T22:43:08.570Z,26.77
2023-02-08T22:46:01.409Z,24.23
2023-02-08T22:48:51.595Z,21.77
2023-02-08T22:51:39.467Z,21.27
2023-02-08T22:54:28.191Z,20.07
2023-02-08T22:57:14.735Z,23.17
2023-02-08T23:00:01.862Z,25.47
2023-02-08T23:02:48.478Z,26.80
2023-02-08T23:05:42.106Z,26.53
2023-02-08T23:08:28.975Z,23.10
2023-02-08T23:11:16.559Z,30.07
2023-02-08T23:14:04.133Z,27.50
2023-02-08T23:16:51.106Z,25.23
2023-02-08T23:19:38.219Z,23.00
2023-02-08T23:22:26.741Z,20.80
2023-02-08T23:25:13.285Z,22.73
2023-02-08T23:28:00.255Z,22.90
2023-02-08T23:30:48.536Z,21.83
2023-02-08T23:33:36.255Z,22.13
2023-02-08T23:36:24.474Z,27.33
2023-02-08T23:39:12.668Z,19.50
2023-02-08T23:41:59.522Z,27.50
2023-02-08T23:44:46.394Z,22.60
2023-02-08T23:47:33.483Z,19.93
2023-02-08T23:50:20.311Z,20.20
2023-02-08T23:53:09.313Z,19.10
2023-02-08T23:56:06.549Z,24.67
2023-02-08T23:58:56.080Z,21.30
